Time;durP1;ratioP1;P1;durP2;ratioP2;P2;SDS_P1;SDS_P2;PMS_P1;PMS_P2;Temp;Humidity;BMP_temperature;BMP_pressure;BME280_temperature;BME280_humidity;BME280_pressure;Samples;Min_cycle;Max_cycle;Signal;HPM_P1;HPM_P2
2023/04/05 00:01:25;;;;;;;9.13;5.40;;;;;;;0.80;71.39;98702.25;4968909;28;20715;-84
2023/04/05 00:03:53;;;;;;;8.97;6.13;;;;;;;0.86;71.45;98702.13;4969539;28;20220;-84
2023/04/05 00:06:25;;;;;;;9.43;6.03;;;;;;;0.78;71.55;98699.66;4969188;28;20244;-84
2023/04/05 00:08:54;;;;;;;6.97;5.57;;;;;;;0.70;71.93;98700.72;4969562;28;20221;-84
2023/04/05 00:11:21;;;;;;;7.63;5.67;;;;;;;0.61;72.13;98699.16;4968830;28;20212;-84
2023/04/05 00:13:49;;;;;;;8.47;5.33;;;;;;;0.57;73.02;98705.31;4969715;28;20214;-84
2023/04/05 00:16:16;;;;;;;6.63;5.03;;;;;;;0.50;73.37;98703.72;4969492;28;20232;-84
2023/04/05 00:18:45;;;;;;;6.17;5.20;;;;;;;0.46;73.67;98696.91;4969573;28;20218;-84
2023/04/05 00:21:13;;;;;;;6.80;5.33;;;;;;;0.44;74.12;98698.66;4968855;28;20234;-84
2023/04/05 00:23:40;;;;;;;6.83;5.87;;;;;;;0.42;74.23;98692.63;4972762;28;20653;-84
2023/04/05 00:26:07;;;;;;;8.20;5.80;;;;;;;0.43;73.98;98688.31;4972704;28;20852;-84
2023/04/05 00:28:34;;;;;;;7.83;5.73;;;;;;;0.37;74.24;98686.66;4972831;28;20222;-84
2023/04/05 00:31:02;;;;;;;7.57;6.00;;;;;;;0.34;73.61;98681.53;4971883;28;20250;-84
2023/04/05 00:33:28;;;;;;;7.60;5.40;;;;;;;0.29;73.82;98678.19;4972892;28;20250;-84
2023/04/05 00:35:55;;;;;;;7.70;5.27;;;;;;;0.24;74.19;98682.59;4972555;28;20742;-84
2023/04/05 00:38:21;;;;;;;9.07;5.30;;;;;;;0.15;75.00;98677.59;4972448;28;20212;-84
2023/04/05 00:40:48;;;;;;;8.93;6.00;;;;;;;0.15;76.19;98690.59;4971750;28;20727;-84
2023/04/05 00:43:14;;;;;;;7.03;6.00;;;;;;;0.10;76.79;98689.81;4973016;28;20231;-84
2023/04/05 00:45:41;;;;;;;8.83;5.87;;;;;;;0.07;78.43;98696.81;4972730;28;20245;-84
2023/04/05 00:48:09;;;;;;;8.30;6.33;;;;;;;0.05;79.37;98695.97;4972589;28;20209;-84
2023/04/05 00:50:37;;;;;;;7.63;6.07;;;;;;;0.04;80.32;98689.94;4971935;28;20213;-84
2023/04/05 00:53:05;;;;;;;7.93;6.13;;;;;;;0.01;79.59;98689.97;4972278;28;20214;-84
2023/04/05 00:55:33;;;;;;;9.20;6.07;;;;;;;0.01;79.16;98676.16;4972121;28;20745;-84
2023/04/05 00:58:00;;;;;;;8.67;6.00;;;;;;;-0.01;78.76;98677.91;4972463;28;20211;-84
2023/04/05 01:00:27;;;;;;;10.13;6.13;;;;;;;-0.02;78.61;98674.47;4969084;28;20221;-84
2023/04/05 01:03:00;;;;;;;8.93;6.17;;;;;;;-0.03;78.68;98664.97;4969549;28;20305;-84
2023/04/05 01:05:38;;;;;;;10.17;5.93;;;;;;;0.01;78.29;98666.59;4971245;28;20243;-84
2023/04/05 01:08:11;;;;;;;7.57;5.70;;;;;;;0.02;78.55;98657.91;4972432;28;20225;-84
2023/04/05 01:10:42;;;;;;;8.83;5.77;;;;;;;0.03;77.87;98658.78;4971522;28;20207;-84
2023/04/05 01:13:09;;;;;;;8.20;5.90;;;;;;;-0.04;78.48;98659.78;4972028;28;20659;-84
2023/04/05 01:15:36;;;;;;;7.50;6.43;;;;;;;-0.11;80.74;98669.44;4971995;28;20796;-84
2023/04/05 01:18:02;;;;;;;8.57;6.30;;;;;;;-0.13;80.71;98668.59;4971994;28;20216;-84
2023/04/05 01:20:36;;;;;;;8.20;6.63;;;;;;;-0.13;80.92;98663.41;4971529;28;20214;-84
2023/04/05 01:23:17;;;;;;;11.03;6.77;;;;;;;-0.12;80.69;98659.94;4971949;28;20219;-84
2023/04/05 01:26:04;;;;;;;8.17;6.03;;;;;;;-0.11;80.40;98650.41;4971927;28;20564;-84
2023/04/05 01:28:59;;;;;;;11.73;6.13;;;;;;;-0.17;81.09;98649.66;4971957;28;20245;-84
2023/04/05 01:31:36;;;;;;;8.13;6.67;;;;;;;-0.22;82.33;98648.88;4971169;28;20208;-85
2023/04/05 01:34:13;;;;;;;7.50;6.27;;;;;;;-0.28;83.05;98653.28;4971001;28;20238;-84
2023/04/05 01:36:43;;;;;;;9.30;6.60;;;;;;;-0.31;83.68;98651.66;4971538;28;20234;-84
2023/04/05 01:39:14;;;;;;;9.13;6.87;;;;;;;-0.36;83.55;98643.97;4970766;28;20211;-84
2023/04/05 01:41:40;;;;;;;9.13;6.30;;;;;;;-0.34;83.27;98651.69;4971758;28;20345;-84
2023/04/05 01:44:07;;;;;;;8.37;5.67;;;;;;;-0.36;83.32;98648.28;4971843;28;20207;-84
2023/04/05 01:46:35;;;;;;;7.80;6.20;;;;;;;-0.36;83.67;98648.28;4971565;28;20240;-84
2023/04/05 01:49:01;;;;;;;7.77;6.37;;;;;;;-0.34;83.46;98651.69;4971601;28;20712;-85
2023/04/05 01:51:28;;;;;;;8.37;6.00;;;;;;;-0.36;83.15;98643.09;4971468;28;20222;-85
2023/04/05 01:53:54;;;;;;;8.73;6.30;;;;;;;-0.36;83.40;98637.91;4971707;28;20213;-85
2023/04/05 01:56:21;;;;;;;9.23;6.60;;;;;;;-0.43;84.08;98641.50;4971877;28;20234;-85
2023/04/05 01:58:47;;;;;;;10.27;6.93;;;;;;;-0.45;83.81;98635.47;4971684;28;20211;-85
2023/04/05 02:01:14;;;;;;;9.60;6.67;;;;;;;-0.48;83.96;98638.13;4970934;28;20238;-85
2023/04/05 02:03:42;;;;;;;10.57;6.80;;;;;;;-0.53;84.85;98634.72;4971486;28;20756;-85
2023/04/05 02:06:08;;;;;;;8.30;6.97;;;;;;;-0.56;85.00;98637.41;5042308;22;20235;-81
2023/04/05 02:08:35;;;;;;;9.07;7.07;;;;;;;-0.62;84.90;98627.97;5113721;28;20579;-81
2023/04/05 02:11:01;;;;;;;10.43;6.53;;;;;;;-0.66;85.83;98628.06;5113131;28;20220;-81
2023/04/05 02:13:28;;;;;;;9.43;6.67;;;;;;;-0.64;86.15;98626.28;5113555;28;20285;-81
2023/04/05 02:15:54;;;;;;;8.53;6.13;;;;;;;-0.62;85.52;98629.72;5113562;28;20224;-81
2023/04/05 02:18:21;;;;;;;6.93;6.00;;;;;;;-0.64;86.97;98631.47;5113719;28;20711;-80
2023/04/05 02:20:50;;;;;;;11.17;6.93;;;;;;;-0.66;86.87;98633.25;5112725;28;20259;-81
2023/04/05 02:23:19;;;;;;;7.27;5.97;;;;;;;-0.64;87.12;98626.28;5113497;28;20207;-80
2023/04/05 02:25:45;;;;;;;8.67;6.40;;;;;;;-0.62;87.55;98619.34;5113461;28;20773;-81
2023/04/05 02:28:12;;;;;;;8.83;6.33;;;;;;;-0.65;88.21;98616.78;5113286;28;20203;-80
2023/04/05 02:30:38;;;;;;;9.63;6.73;;;;;;;-0.62;88.02;98621.94;5112465;28;20209;-81
2023/04/05 02:33:08;;;;;;;9.13;6.60;;;;;;;-0.65;88.40;98624.56;5113555;28;20548;-81
2023/04/05 02:35:34;;;;;;;7.63;6.23;;;;;;;-0.61;88.49;98610.66;5113007;28;20230;-81
2023/04/05 02:38:03;;;;;;;7.73;6.03;;;;;;;-0.56;87.33;98608.84;5113031;28;20222;-80
2023/04/05 02:40:29;;;;;;;8.97;6.50;;;;;;;-0.55;86.37;98610.56;5112707;28;20257;-81
2023/04/05 02:42:56;;;;;;;10.10;6.33;;;;;;;-0.52;86.17;98613.09;5112986;28;20256;-81
2023/04/05 02:45:22;;;;;;;9.27;6.03;;;;;;;-0.55;85.35;98610.56;5113173;28;20230;-81
2023/04/05 02:47:49;;;;;;;10.00;6.37;;;;;;;-0.56;85.73;98614.03;5113186;28;20207;-80
2023/04/05 02:50:19;;;;;;;10.27;7.00;;;;;;;-0.61;85.57;98616.69;5111935;28;20203;-80
2023/04/05 02:52:45;;;;;;;8.07;6.47;;;;;;;-0.66;86.51;98602.09;5112963;28;20207;-80
2023/04/05 02:55:13;;;;;;;9.50;6.27;;;;;;;-0.71;87.23;98614.28;5112745;28;20203;-80
2023/04/05 02:57:41;;;;;;;7.87;6.50;;;;;;;-0.77;87.34;98614.41;5112972;28;20212;-80
2023/04/05 03:00:10;;;;;;;10.30;6.93;;;;;;;-0.82;88.08;98611.00;5112143;28;20218;-80
2023/04/05 03:02:38;;;;;;;11.20;6.57;;;;;;;-0.82;88.45;98608.41;5112786;28;20827;-81
2023/04/05 03:05:06;;;;;;;9.77;6.97;;;;;;;-0.79;86.78;98605.78;5112499;28;20207;-80
2023/04/05 03:07:34;;;;;;;8.93;6.20;;;;;;;-0.88;86.62;98600.75;5112450;28;20597;-80
2023/04/05 03:10:01;;;;;;;9.30;6.10;;;;;;;-0.91;86.65;98606.00;5111757;28;20210;-80
2023/04/05 03:12:29;;;;;;;8.37;6.03;;;;;;;-0.94;86.31;98611.22;5112640;28;20202;-80
2023/04/05 03:14:55;;;;;;;9.20;6.43;;;;;;;-0.95;87.01;98602.59;5112679;28;20209;-81
2023/04/05 03:17:22;;;;;;;7.87;6.60;;;;;;;-0.95;86.79;98609.50;5112498;28;20227;-81
2023/04/05 03:19:48;;;;;;;7.50;6.33;;;;;;;-0.99;86.67;98594.91;5111717;28;20576;-81
2023/04/05 03:22:15;;;;;;;9.17;6.23;;;;;;;-1.03;87.23;98596.69;5112190;28;20226;-80
2023/04/05 03:24:42;;;;;;;10.20;6.67;;;;;;;-1.09;87.11;98601.09;5112380;28;20206;-81
2023/04/05 03:27:08;;;;;;;7.73;5.83;;;;;;;-1.15;88.21;98596.00;5112343;28;20227;-80
2023/04/05 03:29:36;;;;;;;8.83;6.43;;;;;;;-1.18;88.81;98598.66;5111494;28;20402;-79
2023/04/05 03:32:03;;;;;;;8.63;6.67;;;;;;;-1.24;89.04;98601.34;5112317;28;20225;-80
2023/04/05 03:34:29;;;;;;;10.30;6.37;;;;;;;-1.28;89.51;98600.56;5112191;28;20207;-80
2023/04/05 03:36:56;;;;;;;8.87;5.93;;;;;;;-1.34;90.32;98599.78;5111989;28;20238;-80
2023/04/05 03:39:22;;;;;;;9.57;6.37;;;;;;;-1.39;90.01;98602.44;5111590;28;20210;-80
2023/04/05 03:41:49;;;;;;;7.27;6.30;;;;;;;-1.40;90.64;98610.22;5112098;28;20246;-80
2023/04/05 03:44:15;;;;;;;10.17;6.20;;;;;;;-1.40;90.95;98599.88;5112650;28;20202;-80
2023/04/05 03:46:44;;;;;;;10.73;5.97;;;;;;;-1.45;90.82;98596.47;5112064;28;20235;-80
2023/04/05 03:49:10;;;;;;;7.67;6.30;;;;;;;-1.50;91.43;98600.88;5111563;28;20209;-79
2023/04/05 03:51:37;;;;;;;8.27;7.13;;;;;;;-1.52;91.96;98602.63;5111844;28;20199;-80
2023/04/05 03:54:03;;;;;;;10.27;6.13;;;;;;;-1.55;92.25;98594.88;5111901;28;20685;-79
2023/04/05 03:56:30;;;;;;;9.33;6.30;;;;;;;-1.55;92.40;98600.06;5111383;28;20226;-80
2023/04/05 03:58:56;;;;;;;11.17;6.77;;;;;;;-1.59;92.66;98609.63;5112029;28;20208;-80
2023/04/05 04:01:23;;;;;;;8.93;6.40;;;;;;;-1.65;92.86;98601.94;5111127;28;20286;-79
2023/04/05 04:03:51;;;;;;;9.90;6.73;;;;;;;-1.67;93.67;98605.44;5111771;28;20207;-80
2023/04/05 04:06:18;;;;;;;9.53;7.07;;;;;;;-1.69;94.34;98602.00;5111648;28;20253;-80
2023/04/05 04:08:44;;;;;;;9.27;6.70;;;;;;;-1.71;94.39;98608.94;5111779;28;20203;-80
2023/04/05 04:11:11;;;;;;;9.10;6.70;;;;;;;-1.73;94.36;98603.78;5111118;28;20216;-80
2023/04/05 04:13:37;;;;;;;10.43;6.93;;;;;;;-1.76;94.63;98605.56;5111729;28;20550;-80
2023/04/05 04:16:04;;;;;;;7.47;6.47;;;;;;;-1.69;93.88;98604.59;5111728;28;20230;-80
2023/04/05 04:18:30;;;;;;;9.50;6.70;;;;;;;-1.66;93.11;98601.97;5111520;28;20392;-81
2023/04/05 04:20:58;;;;;;;9.37;7.10;;;;;;;-1.66;93.31;98597.63;5111187;28;20228;-80
2023/04/05 04:23:26;;;;;;;7.47;6.10;;;;;;;-1.57;92.10;98601.84;5111458;28;20233;-80
2023/04/05 04:25:53;;;;;;;9.30;6.70;;;;;;;-1.55;91.91;98597.47;5111640;28;20633;-80
2023/04/05 04:28:20;;;;;;;11.13;6.70;;;;;;;-1.45;91.96;98596.47;5111596;28;20664;-80
2023/04/05 04:30:46;;;;;;;10.07;6.80;;;;;;;-1.40;91.66;98589.50;5111184;28;20210;-80
2023/04/05 04:33:13;;;;;;;9.10;6.27;;;;;;;-1.41;91.76;98592.97;5111469;28;20202;-80
2023/04/05 04:35:39;;;;;;;9.67;7.13;;;;;;;-1.48;91.80;98587.00;5111549;28;20232;-81
2023/04/05 04:38:08;;;;;;;7.87;6.10;;;;;;;-1.54;92.21;98596.63;5111426;28;20211;-82
2023/04/05 04:40:37;;;;;;;9.10;6.70;;;;;;;-1.56;92.19;98599.22;5110823;28;20204;-80
2023/04/05 04:43:04;;;;;;;9.00;6.47;;;;;;;-1.58;93.03;98600.13;5111469;28;20320;-79
2023/04/05 04:45:33;;;;;;;8.97;6.63;;;;;;;-1.60;93.33;98613.09;5111612;28;20226;-79
2023/04/05 04:48:00;;;;;;;11.97;7.30;;;;;;;-1.59;93.40;98598.41;5112708;28;20676;-80
2023/04/05 04:50:27;;;;;;;8.43;6.50;;;;;;;-1.58;93.87;98597.53;5110634;28;20664;-80
2023/04/05 04:52:53;;;;;;;8.50;6.60;;;;;;;-1.65;94.41;98606.28;5111393;28;20295;-79
2023/04/05 04:55:24;;;;;;;10.30;6.77;;;;;;;-1.73;95.52;98606.38;5111190;28;20206;-80
2023/04/05 04:57:51;;;;;;;10.23;7.20;;;;;;;-1.77;96.49;98611.63;5111169;28;20209;-80
2023/04/05 05:00:19;;;;;;;10.03;7.53;;;;;;;-1.80;96.76;98609.06;5110395;28;20206;-79
2023/04/05 05:02:46;;;;;;;10.17;7.40;;;;;;;-1.76;96.52;98615.91;5111251;28;20230;-80
2023/04/05 05:05:21;;;;;;;11.93;7.93;;;;;;;-1.78;97.57;98615.09;5110921;28;20730;-80
2023/04/05 05:07:48;;;;;;;13.10;8.63;;;;;;;-1.76;98.07;98615.91;5110984;28;20214;-80
2023/04/05 05:10:15;;;;;;;11.43;8.40;;;;;;;-1.69;97.72;98622.72;5113385;28;20207;-80
2023/04/05 05:12:43;;;;;;;11.17;8.03;;;;;;;-1.66;98.30;98622.72;5114549;28;20509;-80
2023/04/05 05:15:11;;;;;;;13.53;8.57;;;;;;;-1.63;97.97;98615.75;5115151;28;20217;-80
2023/04/05 05:17:38;;;;;;;8.43;7.13;;;;;;;-1.58;97.71;98621.72;5114677;28;20217;-80
2023/04/05 05:20:09;;;;;;;10.97;7.70;;;;;;;-1.56;98.31;98624.28;5113791;28;20210;-79
2023/04/05 05:22:36;;;;;;;9.13;7.33;;;;;;;-1.49;98.60;98615.53;5114624;28;20366;-80
2023/04/05 05:25:02;;;;;;;8.43;7.00;;;;;;;-1.44;97.79;98611.16;5114828;28;20578;-79
2023/04/05 05:27:29;;;;;;;9.33;7.20;;;;;;;-1.39;97.74;98611.94;5114520;28;20210;-80
2023/04/05 05:29:57;;;;;;;8.87;6.90;;;;;;;-1.36;97.74;98612.75;5113988;28;20202;-80
2023/04/05 05:32:23;;;;;;;9.90;7.30;;;;;;;-1.30;97.14;98611.81;5114098;28;20230;-81
2023/04/05 05:34:50;;;;;;;9.83;7.90;;;;;;;-1.23;96.56;98614.28;5114453;28;20213;-79
2023/04/05 05:37:16;;;;;;;11.37;7.30;;;;;;;-1.19;97.00;98609.91;5114070;28;20230;-79
2023/04/05 05:39:44;;;;;;;11.60;8.07;;;;;;;-1.14;96.62;98606.38;5113503;28;20207;-79
2023/04/05 05:42:11;;;;;;;9.80;7.50;;;;;;;-1.09;96.26;98608.88;5114304;28;20671;-79
2023/04/05 05:44:37;;;;;;;11.13;7.23;;;;;;;-1.06;96.54;98606.25;5114281;28;20206;-79
2023/04/05 05:47:05;;;;;;;9.90;7.20;;;;;;;-1.04;96.06;98599.28;5114250;28;20225;-79
2023/04/05 05:49:32;;;;;;;11.33;8.50;;;;;;;-1.02;95.71;98607.91;5112908;28;20210;-79
2023/04/05 05:51:58;;;;;;;10.73;7.63;;;;;;;-0.93;94.93;98603.41;5114015;28;20206;-78
2023/04/05 05:54:25;;;;;;;13.40;8.07;;;;;;;-0.78;93.70;98603.19;5113826;28;20249;-75
2023/04/05 05:56:52;;;;;;;10.60;6.80;;;;;;;-0.61;92.58;98598.53;5113842;28;20358;-82
2023/04/05 05:59:19;;;;;;;10.63;7.97;;;;;;;-0.50;91.30;98593.16;5112907;28;20210;-80
2023/04/05 06:01:46;;;;;;;10.83;6.90;;;;;;;-0.39;91.02;98601.63;5113635;28;20206;-79
2023/04/05 06:04:15;;;;;;;9.07;7.27;;;;;;;-0.34;90.90;98604.94;5113713;28;20709;-80
2023/04/05 06:06:42;;;;;;;9.67;7.63;;;;;;;-0.28;90.51;98604.84;5113648;28;20625;-82
2023/04/05 06:09:09;;;;;;;8.63;7.00;;;;;;;-0.15;89.75;98607.19;5113058;28;20206;-78
2023/04/05 06:11:36;;;;;;;8.33;6.43;;;;;;;-0.05;88.81;98609.56;5113672;28;20200;-81
2023/04/05 06:14:02;;;;;;;9.00;6.57;;;;;;;0.01;88.61;98608.59;5113476;28;20726;-78
2023/04/05 06:16:29;;;;;;;8.53;6.93;;;;;;;0.08;88.85;98605.81;5113575;28;20222;-82
2023/04/05 06:18:56;;;;;;;8.80;6.93;;;;;;;0.22;89.36;98603.81;5113333;28;20216;-82
2023/04/05 06:21:24;;;;;;;10.67;7.47;;;;;;;0.33;89.45;98612.22;5112333;28;20213;-81
2023/04/05 06:23:50;;;;;;;11.33;7.50;;;;;;;0.39;89.19;98617.28;5113681;28;20228;-82
2023/04/05 06:26:19;;;;;;;9.30;7.77;;;;;;;0.46;88.32;98608.50;5113519;28;20222;-82
2023/04/05 06:28:46;;;;;;;8.73;7.27;;;;;;;0.53;88.33;98609.19;5113300;28;20634;-78
2023/04/05 06:31:14;;;;;;;9.70;7.30;;;;;;;0.55;87.54;98607.44;5112494;28;20257;-79
2023/04/05 06:33:40;;;;;;;10.77;7.43;;;;;;;0.66;86.42;98611.50;5113107;28;20299;-81
2023/04/05 06:36:07;;;;;;;10.73;7.37;;;;;;;0.72;86.08;98605.28;5112785;28;20237;-79
2023/04/05 06:38:35;;;;;;;9.20;7.67;;;;;;;0.72;85.62;98606.16;5113094;28;20211;-86
2023/04/05 06:41:02;;;;;;;9.27;7.60;;;;;;;0.76;85.61;98607.81;5111609;28;20214;-82
2023/04/05 06:43:28;;;;;;;10.40;7.87;;;;;;;0.78;85.63;98613.81;5112980;28;20237;-83
2023/04/05 06:45:56;;;;;;;10.97;8.10;;;;;;;0.86;85.64;98604.09;5111407;28;20222;-84
2023/04/05 06:48:22;;;;;;;9.60;7.27;;;;;;;0.80;86.44;98609.44;5110093;28;20213;-82
2023/04/05 06:50:56;;;;;;;9.67;7.80;;;;;;;0.80;86.48;98612.03;5110514;28;20213;-82
2023/04/05 06:53:26;;;;;;;10.83;7.47;;;;;;;0.87;84.86;98605.78;5112316;28;20288;-84
2023/04/05 06:55:55;;;;;;;7.93;6.43;;;;;;;0.94;83.60;98594.38;5112778;28;20708;-90
2023/04/05 06:58:22;;;;;;;12.13;6.67;;;;;;;1.03;82.13;98588.06;5113173;28;20210;-90
2023/04/05 07:00:49;;;;;;;11.13;6.97;;;;;;;1.12;80.76;98596.50;5112153;28;20211;-87
2023/04/05 07:03:16;;;;;;;8.67;6.60;;;;;;;1.18;80.07;98591.13;5113090;28;20224;-87
2023/04/05 07:05:50;;;;;;;8.17;6.37;;;;;;;1.34;78.47;98586.41;5112986;28;20283;-87
2023/04/05 07:08:17;;;;;;;10.33;7.23;;;;;;;1.34;77.43;98589.88;5113136;28;20199;-85
2023/04/05 07:10:44;;;;;;;8.73;6.80;;;;;;;1.53;78.54;98604.13;5111975;28;20212;-83
2023/04/05 07:13:12;;;;;;;8.40;7.00;;;;;;;1.62;77.75;98596.09;5112531;28;20199;-91
2023/04/05 07:15:38;;;;;;;11.63;6.93;;;;;;;1.78;77.23;98591.31;5112674;28;20608;-86
2023/04/05 07:18:05;;;;;;;9.10;7.00;;;;;;;1.90;75.50;98584.00;5113125;28;20205;-90
2023/04/05 07:20:32;;;;;;;9.83;6.63;;;;;;;2.07;76.39;98586.13;5112402;28;20255;-87
2023/04/05 07:22:58;;;;;;;7.63;6.17;;;;;;;2.22;75.63;98591.78;5112822;28;20242;-89
2023/04/05 07:25:25;;;;;;;8.00;6.00;;;;;;;2.28;72.46;98569.88;5112088;28;20234;-81
2023/04/05 07:27:52;;;;;;;8.75;6.60;;;;;;;2.26;72.32;98567.31;5110501;28;20427;-81
2023/04/05 07:30:20;;;;;;;10.03;6.77;;;;;;;2.42;72.84;98571.19;5105813;28;20555;-81
2023/04/05 07:32:46;;;;;;;8.90;6.77;;;;;;;2.56;71.40;98566.38;5110413;28;20232;-81
2023/04/05 07:35:14;;;;;;;9.60;7.03;;;;;;;2.73;72.52;98574.56;5112102;28;20202;-80
2023/04/05 07:37:40;;;;;;;11.03;6.87;;;;;;;2.83;71.45;98565.53;5111672;28;20212;-80
2023/04/05 07:40:09;;;;;;;8.83;5.83;;;;;;;2.88;70.18;98562.78;5111834;28;20690;-81
2023/04/05 07:42:36;;;;;;;9.23;6.73;;;;;;;3.15;72.83;98580.16;5111264;28;20216;-81
2023/04/05 07:45:03;;;;;;;9.80;5.47;;;;;;;3.36;72.68;98582.91;5110656;28;20212;-80
2023/04/05 07:47:32;;;;;;;8.60;5.93;;;;;;;3.47;69.78;98567.72;5111320;28;20576;-81
2023/04/05 07:49:59;;;;;;;8.43;6.07;;;;;;;3.44;68.65;98565.22;5110908;28;20593;-81
2023/04/05 07:52:27;;;;;;;9.17;6.30;;;;;;;3.55;67.27;98559.63;5110119;28;20305;-80
2023/04/05 07:54:53;;;;;;;8.47;5.73;;;;;;;3.54;66.70;98556.16;5108331;28;20202;-81
2023/04/05 07:57:20;;;;;;;7.70;6.17;;;;;;;3.67;65.73;98552.19;5109405;28;20264;-80
2023/04/05 07:59:49;;;;;;;8.33;5.53;;;;;;;3.74;64.45;98547.63;5107040;28;20646;-79
2023/04/05 08:02:16;;;;;;;6.83;6.00;;;;;;;3.94;65.40;98561.69;5109719;28;20289;-79
2023/04/05 08:04:44;;;;;;;8.23;6.50;;;;;;;4.12;65.28;98561.03;5111131;28;20224;-79
2023/04/05 08:07:11;;;;;;;8.03;6.50;;;;;;;4.19;61.42;98535.47;5111436;22;20243;-79
2023/04/05 08:09:38;;;;;;;9.60;6.53;;;;;;;4.03;61.33;98529.13;5090077;28;20203;-80
2023/04/05 08:12:05;;;;;;;9.53;6.60;;;;;;;4.16;63.54;98546.91;5091270;28;20239;-79
2023/04/05 08:14:31;;;;;;;8.57;6.47;;;;;;;4.25;62.91;98550.94;5090046;28;20206;-79
2023/04/05 08:16:58;;;;;;;8.27;5.97;;;;;;;4.26;62.05;98543.03;5090495;28;20229;-78
2023/04/05 08:19:25;;;;;;;8.87;6.73;;;;;;;4.30;61.25;98531.56;5089576;28;20732;-78
2023/04/05 08:21:53;;;;;;;7.37;6.20;;;;;;;4.30;61.87;98534.16;5089539;28;20217;-79
2023/04/05 08:24:19;;;;;;;7.80;6.37;;;;;;;4.53;62.99;98541.97;5090178;28;20610;-77
2023/04/05 08:26:46;;;;;;;7.93;6.30;;;;;;;4.65;62.48;98544.09;5090449;28;20234;-77
2023/04/05 08:29:12;;;;;;;10.47;5.90;;;;;;;4.74;59.74;98520.19;5088667;28;20209;-78
2023/04/05 08:31:39;;;;;;;7.70;6.07;;;;;;;4.72;58.76;98505.47;5090637;28;20625;-78
2023/04/05 08:34:07;;;;;;;8.03;5.80;;;;;;;4.83;57.17;98493.63;5090405;28;20217;-79
2023/04/05 08:36:33;;;;;;;6.00;5.40;;;;;;;4.86;56.69;98493.53;5089581;28;20231;-78
2023/04/05 08:39:01;;;;;;;6.90;5.20;;;;;;;5.09;59.58;98518.75;5089261;28;20638;-79
2023/04/05 08:41:35;;;;;;;7.23;5.13;;;;;;;5.31;57.54;98512.56;5090883;28;20216;-80
2023/04/05 08:44:02;;;;;;;8.40;5.27;;;;;;;5.53;58.24;98517.72;5094166;28;20235;-79
2023/04/05 08:46:31;;;;;;;7.77;4.93;;;;;;;5.55;55.91;98495.78;5095257;28;20231;-78
2023/04/05 08:48:58;;;;;;;8.93;5.63;;;;;;;5.72;54.18;98490.66;5094954;28;20256;-77
2023/04/05 08:51:25;;;;;;;5.97;4.93;;;;;;;5.67;52.55;98469.03;5094106;28;20227;-79
2023/04/05 08:53:53;;;;;;;5.97;5.13;;;;;;;5.52;52.94;98469.72;5094917;28;20207;-79
2023/04/05 08:56:25;;;;;;;8.20;5.30;;;;;;;5.69;52.86;98467.16;5091289;28;20580;-80
2023/04/05 08:58:59;;;;;;;6.80;4.50;;;;;;;5.54;51.10;98452.13;5094356;28;20210;-78
2023/04/05 09:01:29;;;;;;;5.87;4.90;;;;;;;5.64;51.59;98469.19;5094672;28;20665;-80
2023/04/05 09:03:57;;;;;;;5.53;4.50;;;;;;;5.98;52.18;98477.25;5094797;28;20232;-85
2023/04/05 09:06:25;;;;;;;7.57;4.90;;;;;;;6.11;51.89;98453.94;5095168;28;20240;-76
2023/04/05 09:08:56;;;;;;;6.03;5.03;;;;;;;6.21;52.52;98474.44;5094448;28;20301;-75
2023/04/05 09:11:24;;;;;;;7.07;5.17;;;;;;;6.33;52.12;98481.72;5093784;28;20206;-76
2023/04/05 09:13:51;;;;;;;7.90;5.27;;;;;;;6.27;50.10;98444.41;5094451;28;20612;-76
2023/04/05 09:16:18;;;;;;;5.80;4.80;;;;;;;6.25;49.68;98447.13;5094308;28;20231;-76
2023/04/05 09:18:44;;;;;;;5.60;4.90;;;;;;;6.37;48.38;98436.06;5094476;28;20210;-79
2023/04/05 09:21:11;;;;;;;7.17;4.90;;;;;;;6.43;47.42;98430.50;5093726;28;20218;-76
2023/04/05 09:23:37;;;;;;;5.27;4.40;;;;;;;6.53;46.36;98410.72;5094269;28;20222;-76
2023/04/05 09:26:18;;;;;;;5.67;4.73;;;;;;;6.72;48.19;98448.31;5094230;28;20365;-77
2023/04/05 09:28:46;;;;;;;4.63;4.20;;;;;;;6.82;46.93;98427.69;5094050;28;20646;-77
2023/04/05 09:31:30;;;;;;;5.87;4.80;;;;;;;6.91;47.02;98433.34;5093260;28;20688;-77
2023/04/05 09:33:58;;;;;;;7.83;5.23;;;;;;;7.12;49.86;98473.47;5093943;28;20258;-77
2023/04/05 09:36:25;;;;;;;6.33;4.90;;;;;;;7.22;49.56;98470.31;5093016;28;20227;-78
2023/04/05 09:38:52;;;;;;;6.20;5.60;;;;;;;7.18;46.97;98437.22;5093757;28;20216;-78
2023/04/05 09:41:18;;;;;;;6.67;5.30;;;;;;;7.09;46.61;98424.53;5093142;28;20280;-77
2023/04/05 09:43:46;;;;;;;6.67;5.30;;;;;;;7.05;46.93;98430.88;5093809;28;20233;-78
2023/04/05 09:46:30;;;;;;;6.07;5.00;;;;;;;6.74;45.83;98408.84;5093923;28;20252;-77
2023/04/05 09:48:56;;;;;;;5.67;4.83;;;;;;;6.78;47.50;98437.50;5093890;28;20304;-78
2023/04/05 09:51:23;;;;;;;7.40;5.50;;;;;;;6.97;48.78;98454.03;5093368;28;20219;-77
2023/04/05 09:54:01;;;;;;;7.83;5.00;;;;;;;7.19;49.24;98465.19;5093614;28;20203;-79
2023/04/05 09:56:29;;;;;;;6.10;5.00;;;;;;;7.24;46.02;98418.50;5093497;28;20243;-77
2023/04/05 09:59:01;;;;;;;6.10;5.50;;;;;;;7.25;46.33;98428.09;5093609;28;20215;-78
2023/04/05 10:01:28;;;;;;;6.57;5.00;;;;;;;7.38;46.08;98423.06;5093119;28;20212;-79
2023/04/05 10:03:57;;;;;;;5.57;4.97;;;;;;;7.42;45.94;98414.94;5093303;28;20229;-78
2023/04/05 10:06:24;;;;;;;7.20;5.13;;;;;;;7.43;45.66;98411.34;5093135;28;20266;-79
2023/04/05 10:08:52;;;;;;;7.70;5.60;;;;;;;7.32;44.12;98390.88;5093773;28;20238;-79
2023/04/05 10:11:18;;;;;;;5.43;4.80;;;;;;;7.18;44.32;98385.47;5092819;28;20304;-77
2023/04/05 10:13:49;;;;;;;7.17;5.40;;;;;;;7.43;47.10;98417.47;5093503;28;20207;-77
2023/04/05 10:16:21;;;;;;;5.43;4.93;;;;;;;7.48;45.89;98414.59;5093184;28;20807;-77
2023/04/05 10:18:52;;;;;;;5.57;5.03;;;;;;;7.55;44.55;98394.94;5093377;28;20248;-77
2023/04/05 10:21:22;;;;;;;6.20;5.60;;;;;;;7.80;47.86;98432.16;5092324;28;20214;-76
2023/04/05 10:23:55;;;;;;;8.53;5.90;;;;;;;7.82;46.54;98409.22;5093359;28;20231;-77
2023/04/05 10:26:31;;;;;;;6.03;5.43;;;;;;;8.03;47.13;98423.88;5092981;28;20281;-79
2023/04/05 10:29:09;;;;;;;6.20;5.60;;;;;;;7.95;44.85;98392.72;5093128;28;20683;-76
2023/04/05 10:31:45;;;;;;;6.50;5.80;;;;;;;7.81;45.10;98389.13;5092715;28;20228;-77
2023/04/05 10:34:25;;;;;;;10.30;5.40;;;;;;;7.38;43.58;98372.16;5093404;28;20208;-79
2023/04/05 10:36:58;;;;;;;6.33;5.70;;;;;;;7.44;44.78;98392.00;5093266;28;20752;-80
2023/04/05 10:39:27;;;;;;;5.60;5.10;;;;;;;7.38;44.63;98387.09;5095694;28;20214;-80
2023/04/05 10:41:59;;;;;;;5.77;5.17;;;;;;;7.58;46.98;98421.94;5108378;28;20195;-80
2023/04/05 10:44:26;;;;;;;6.40;5.63;;;;;;;7.96;47.47;98422.53;5102002;28;20233;-78
2023/04/05 10:46:57;;;;;;;6.60;5.90;;;;;;;8.13;46.63;98419.78;5109570;28;20223;-77
2023/04/05 10:49:32;;;;;;;6.43;5.83;;;;;;;8.19;45.24;98409.81;5090704;28;20424;-78
2023/04/05 10:51:59;;;;;;;6.23;5.63;;;;;;;8.05;44.28;98387.78;5090339;28;20268;-76
2023/04/05 10:54:26;;;;;;;7.20;5.50;;;;;;;7.95;43.07;98368.19;5091808;28;20214;-76
2023/04/05 10:56:53;;;;;;;6.43;5.20;;;;;;;7.89;44.22;98374.63;5091760;28;20229;-76
2023/04/05 10:59:21;;;;;;;6.57;5.90;;;;;;;8.07;45.54;98399.06;5090218;28;20214;-78
2023/04/05 11:01:48;;;;;;;7.33;5.77;;;;;;;8.27;45.44;98399.69;5091976;28;20205;-78
2023/04/05 11:04:17;;;;;;;6.17;5.57;;;;;;;8.22;44.16;98377.22;5091622;28;20229;-77
2023/04/05 11:06:46;;;;;;;6.43;5.50;;;;;;;8.29;45.36;98394.34;5089514;28;20257;-76
2023/04/05 11:09:15;;;;;;;6.23;5.63;;;;;;;8.11;43.16;98361.13;5090508;28;20208;-78
2023/04/05 11:11:43;;;;;;;5.90;5.37;;;;;;;8.07;44.40;98368.34;5091405;28;20231;-76
2023/04/05 11:14:21;;;;;;;7.97;5.50;;;;;;;8.03;44.25;98361.53;5090643;28;20215;-78
2023/04/05 11:16:52;;;;;;;5.50;5.00;;;;;;;7.93;44.04;98364.78;5091550;28;20233;-76
2023/04/05 11:19:20;;;;;;;5.27;4.77;;;;;;;8.07;44.17;98372.75;5090404;28;20209;-76
2023/04/05 11:21:46;;;;;;;5.97;4.90;;;;;;;8.41;44.70;98357.66;5092004;28;20212;-76
2023/04/05 11:24:15;;;;;;;7.80;5.53;;;;;;;8.68;42.67;98342.03;5092306;28;20232;-76
2023/04/05 11:26:57;;;;;;;8.30;5.73;;;;;;;8.56;42.83;98340.13;5091839;28;20229;-75
2023/04/05 11:29:45;;;;;;;6.77;5.40;;;;;;;8.53;42.63;98342.94;5091890;28;20639;-79
2023/04/05 11:32:12;;;;;;;8.40;5.63;;;;;;;8.56;44.11;98358.56;5092227;28;20216;-79
2023/04/05 11:34:43;;;;;;;8.43;5.13;;;;;;;8.62;43.18;98339.78;5092163;28;20204;-75
2023/04/05 11:37:09;;;;;;;7.70;5.40;;;;;;;8.60;42.39;98329.31;5092219;28;20227;-81
2023/04/05 11:39:38;;;;;;;7.40;5.10;;;;;;;8.58;42.07;98330.34;5091268;28;20214;-80
2023/04/05 11:42:05;;;;;;;7.67;5.30;;;;;;;8.57;43.20;98336.56;5091190;28;20262;-81